Data for 06/18/2008

Time Sea-Level Adjusted Pressure Absolute Pressure Temperature Relative Humidity Dew Point   
(mb) (inHg) (mb) (inHg) (C) (F) (%) (C) (F)
00:05 1021 30.15 850 25.1 15.1 59.1 61 7.7 45.8
00:10 1021 30.15 850 25.1 14.7 58.4 62 7.6 45.6
00:15 1021 30.15 850 25.1 15 58.9 59 7.2 45
00:20 1021 30.15 850 25.1 15.3 59.5 58 7.1 44.7
00:25 1021 30.15 850 25.1 15.3 59.6 57 7 44.6
00:30 1021 30.15 850 25.1 15.3 59.6 57 6.9 44.5
00:35 1021 30.15 850 25.1 15.3 59.6 55 6.4 43.5
00:40 1021 30.15 850 25.1 15.5 59.9 54 6.3 43.4
00:45 1021 30.15 850 25.1 15.6 60.1 53 6.2 43.1
00:50 1021 30.15 850 25.1 15.5 59.9 55 6.7 44
00:55 1021 30.15 850 25.1 14.7 58.5 59 6.8 44.2
01:00 1021 30.15 850 25.1 14.1 57.3 61 6.8 44.3
01:05 1021 30.15 850 25.1 13.9 56.9 60 6.2 43.2
01:10 1021 30.15 850 25.1 14.1 57.4 59 6.2 43.2
01:15 1021 30.15 850 25.1 14.1 57.4 59 6.2 43.2
01:20 1021 30.15 850 25.1 13.9 57.1 61 6.5 43.7
01:25 1021 30.15 851 25.13 13.8 56.8 60 6.3 43.4
01:30 1021 30.15 851 25.13 13.9 57 57 5.6 42
01:35 1021 30.15 851 25.13 14.3 57.7 57 6 42.8
01:40 1021 30.15 851 25.13 14.2 57.6 60 6.6 43.9
01:45 1021 30.15 851 25.13 14 57.1 59 6.1 42.9
01:50 1021 30.15 851 25.13 13.8 56.9 56 5.3 41.6
01:55 1021 30.15 851 25.13 14 57.3 58 6 42.9
02:00 1021 30.15 851 25.13 13.5 56.3 60 5.9 42.5
02:05 1021 30.15 851 25.13 13.4 56.1 59 5.6 42.1
02:10 1021 30.15 851 25.13 13.4 56 59 5.7 42.2
02:15 1021 30.15 851 25.13 13.2 55.8 61 5.9 42.6
02:20 1021 30.15 851 25.13 12.9 55.2 62 5.8 42.5
02:25 1022 30.18 851 25.13 12.7 54.9 62 5.7 42.3
02:30 1022 30.18 851 25.13 12.5 54.4 66 6.2 43.2
02:35 1022 30.18 851 25.13 12.2 54 68 6.5 43.7
02:40 1022 30.18 851 25.13 11.9 53.4 70 6.6 43.9
02:45 1021 30.15 851 25.13 11.7 53.1 67 5.9 42.7
02:50 1021 30.15 851 25.13 11.9 53.4 66 5.9 42.6
02:55 1021 30.15 851 25.13 12 53.6 65 5.6 42.1
03:00 1022 30.18 851 25.13 12.3 54.1 64 5.7 42.3
03:05 1022 30.18 851 25.13 12.2 54 64 5.7 42.3
03:10 1022 30.18 851 25.13 12.1 53.8 65 5.8 42.4
03:15 1022 30.18 851 25.13 12 53.5 66 5.8 42.4
03:20 1022 30.18 851 25.13 11.7 53.1 66 5.7 42.2
03:25 1022 30.18 851 25.13 11.6 52.8 67 5.6 42.1
03:30 1022 30.18 851 25.13 11.4 52.4 68 5.7 42.3
03:35 1022 30.18 851 25.13 11 51.8 68 5.5 41.8
03:40 1022 30.18 851 25.13 11.2 52.2 67 5.3 41.5
03:45 1022 30.18 851 25.13 11.3 52.4 66 5.2 41.3
03:50 1022 30.18 851 25.13 11.3 52.4 65 5.2 41.3
03:55 1022 30.18 851 25.13 11.3 52.3 66 5.1 41.2
04:00 1022 30.18 851 25.13 11.2 52.2 65 4.9 40.8
04:05 1022 30.18 851 25.13 11.3 52.3 64 4.9 40.7
04:10 1022 30.18 851 25.13 11.3 52.3 64 4.7 40.5
04:15 1022 30.18 851 25.13 11.3 52.4 64 4.8 40.6
04:20 1022 30.18 851 25.13 11.2 52.2 64 4.7 40.5
04:25 1022 30.18 851 25.13 11.2 52.1 64 4.6 40.3
04:30 1022 30.18 851 25.13 11.1 52 64 4.6 40.3
04:35 1022 30.18 851 25.13 11.2 52.1 63 4.4 39.9
04:40 1022 30.18 851 25.13 11.3 52.4 62 4.5 40
04:45 1022 30.18 851 25.13 11.3 52.3 62 4.4 39.9
04:50 1022 30.18 852 25.16 11.3 52.3 62 4.3 39.8
04:55 1022 30.18 852 25.16 11.3 52.3 62 4.3 39.8
05:00 1022 30.18 852 25.16 11.2 52.1 62 4.1 39.5
05:05 1023 30.21 852 25.16 11.3 52.3 62 4.4 39.9
05:10 1023 30.21 852 25.16 11 51.9 63 4.3 39.8
05:15 1023 30.21 852 25.16 10.9 51.7 64 4.5 40.1
05:20 1023 30.21 852 25.16 10.7 51.2 65 4.5 40.1
05:25 1023 30.21 852 25.16 10.4 50.7 66 4.5 40
05:30 1023 30.21 852 25.16 10.2 50.4 67 4.5 40.1
05:35 1023 30.21 852 25.16 10.1 50.2 67 4.4 39.9
05:40 1023 30.21 852 25.16 9.9 49.9 68 4.4 40
05:45 1023 30.21 852 25.16 9.8 49.6 69 4.4 39.8
05:50 1023 30.21 852 25.16 9.5 49.1 71 4.5 40.1
05:55 1023 30.21 852 25.16 9.2 48.5 72 4.5 40.1
06:00 1023 30.21 852 25.16 8.9 48.1 73 4.4 39.9
06:05 1023 30.21 852 25.16 8.9 48.1 72 4.2 39.6
06:10 1023 30.21 852 25.16 9.1 48.4 71 4.1 39.4
06:15 1023 30.21 852 25.16 9.4 48.9 70 4.2 39.5
06:20 1023 30.21 852 25.16 9.5 49.1 69 4.1 39.4
06:25 1023 30.21 852 25.16 9.7 49.4 69 4.2 39.6
06:30 1023 30.21 852 25.16 9.7 49.5 68 4.1 39.4
06:35 1023 30.21 852 25.16 10 49.9 68 4.3 39.8
06:40 1023 30.21 852 25.16 10.1 50.1 68 4.4 39.9
06:45 1023 30.21 852 25.16 10 50.1 68 4.4 39.9
06:50 1023 30.21 852 25.16 10.1 50.2 68 4.4 40
06:55 1023 30.21 852 25.16 10.3 50.6 66 4.3 39.8
07:00 1023 30.21 852 25.16 10.7 51.3 66 4.7 40.4
07:05 1023 30.21 852 25.16 11.1 51.9 65 4.8 40.6
07:10 1023 30.21 852 25.16 11.6 52.8 63 4.8 40.6
07:15 1023 30.21 852 25.16 11.9 53.5 63 5.1 41.1
07:20 1023 30.21 852 25.16 12.2 54 63 5.5 41.9
07:25 1023 30.21 852 25.16 12.3 54.2 64 5.8 42.5
07:30 1023 30.21 852 25.16 12.5 54.6 64 6 42.8
07:35 1023 30.21 852 25.16 12.9 55.2 62 5.9 42.7
07:40 1023 30.21 852 25.16 13.2 55.8 59 5.5 41.9
07:45 1023 30.21 852 25.16 13.4 56 59 5.7 42.2
07:50 1023 30.21 852 25.16 13.6 56.5 58 5.6 42
07:55 1023 30.21 852 25.16 13.7 56.7 57 5.5 41.9
08:00 1023 30.21 852 25.16 14.2 57.6 55 5.5 41.9
08:05 1023 30.21 852 25.16 15 59 54 5.9 42.7
08:10 1023 30.21 852 25.16 15.4 59.7 53 6.1 42.9
08:15 1023 30.21 852 25.16 15.5 59.8 51 5.5 41.8
08:20 1023 30.21 852 25.16 15.7 60.3 51 5.6 42.1
08:25 1023 30.21 852 25.16 16.2 61.2 47 4.9 40.8
08:30 1023 30.21 852 25.16 16.7 62.1 46 5.2 41.4
08:35 1023 30.21 852 25.16 17 62.6 48 6.1 43
08:40 1023 30.21 852 25.16 16.8 62.3 44 4.8 40.6
08:45 1023 30.21 852 25.16 17.5 63.5 45 5.4 41.7
08:50 1023 30.21 852 25.16 17.6 63.7 44 5.3 41.6
08:55 1023 30.21 852 25.16 17.2 63 45 5.3 41.5
09:00 1022 30.18 852 25.16 17.9 64.3 39 3.9 39
09:05 1022 30.18 852 25.16 18 64.4 37 3.3 37.9
09:10 1022 30.18 852 25.16 17.1 62.8 38 2.8 37.1
09:15 1022 30.18 851 25.13 17.7 63.8 38 3.2 37.8
09:20 1022 30.18 851 25.13 17.7 63.9 36 2.6 36.7
09:25 1022 30.18 851 25.13 18.1 64.6 34 2.1 35.8
09:30 1022 30.18 851 25.13 18.5 65.3 34 2.4 36.3
09:35 1022 30.18 851 25.13 19.3 66.8 34 3.2 37.8
09:40 1022 30.18 851 25.13 19.5 67 35 3.8 38.8
09:45 1022 30.18 851 25.13 19.5 67.1 34 3.2 37.7
09:50 1022 30.18 851 25.13 19.9 67.8 33 3.1 37.6
09:55 1022 30.18 851 25.13 19.4 66.9 33 2.7 36.9
10:00 1022 30.18 851 25.13 19.2 66.6 33 2.5 36.6
10:05 1022 30.18 851 25.13 19 66.1 34 3 37.5
10:10 1022 30.18 851 25.13 20 68 34 3.7 38.7
10:15 1022 30.18 851 25.13 20.5 69 33 4.1 39.3
10:20 1022 30.18 851 25.13 19.9 67.8 35 4.1 39.3
10:25 1022 30.18 851 25.13 19.5 67 36 4.2 39.6
10:30 1022 30.18 851 25.13 20.2 68.3 36 4.8 40.7
10:35 1022 30.18 851 25.13 20.6 69.1 38 5.9 42.7
10:40 1022 30.18 851 25.13 19.9 67.9 40 6.2 43.1
10:45 1022 30.18 851 25.13 20.2 68.3 39 6 42.8
10:50 1022 30.18 851 25.13 20.5 68.9 38 5.7 42.3
10:55 1022 30.18 851 25.13 20.7 69.2 38 6.1 43.1
11:00 1022 30.18 851 25.13 20.4 68.6 39 6.1 42.9
11:05 1022 30.18 851 25.13 20.4 68.7 39 6.3 43.3
11:10 1021 30.15 851 25.13 20.2 68.4 38 5.7 42.3
11:15 1021 30.15 851 25.13 19.4 67 41 6 42.8
11:20 1021 30.15 851 25.13 20.2 68.4 40 6.3 43.4
11:25 1021 30.15 851 25.13 20.4 68.8 38 5.9 42.6
11:30 1021 30.15 851 25.13 20.5 68.8 39 6.1 42.9
11:35 1021 30.15 851 25.13 20.8 69.4 37 5.7 42.2
11:40 1021 30.15 851 25.13 20.4 68.6 38 5.8 42.5
11:45 1021 30.15 851 25.13 20.8 69.5 36 5.2 41.3
11:50 1021 30.15 850 25.1 20.8 69.4 36 5.2 41.4
11:55 1021 30.15 850 25.1 20 68.1 38 5.5 41.8
12:00 1021 30.15 850 25.1 20.4 68.8 37 5.4 41.6
12:05 1021 30.15 850 25.1 20.9 69.5 35 5.1 41.2
12:10 1021 30.15 850 25.1 20.3 68.6 38 5.6 42
12:15 1021 30.15 850 25.1 20.8 69.4 34 4.6 40.3
12:20 1021 30.15 850 25.1 20.3 68.5 36 5 41
12:25 1021 30.15 850 25.1 20.7 69.2 35 4.9 40.7
12:30 1021 30.15 850 25.1 21.5 70.7 34 5.1 41.2
12:35 1021 30.15 850 25.1 22.4 72.3 32 4.9 40.8
12:40 1021 30.15 850 25.1 23.3 73.9 31 5.2 41.4
12:45 1021 30.15 850 25.1 22.1 71.9 33 5.3 41.5
12:50 1021 30.15 850 25.1 21.5 70.7 35 5.7 42.2
12:55 1021 30.15 850 25.1 21.7 71.1 34 5.4 41.7
13:00 1021 30.15 850 25.1 22.8 73 33 5.7 42.3
13:05 1021 30.15 850 25.1 23.1 73.6 32 5.6 42
13:10 1020 30.12 850 25.1 22.4 72.3 34 5.8 42.4
13:15 1020 30.12 850 25.1 22.7 72.9 32 5.3 41.6
13:20 1020 30.12 850 25.1 22.9 73.2 32 5.6 42.1
13:25 1020 30.12 849 25.07 23.2 73.7 30 4.7 40.4
13:30 1020 30.12 849 25.07 23.4 74.2 28 4.2 39.6
13:35 1020 30.12 849 25.07 23.6 74.4 30 5.3 41.6
13:40 1020 30.12 849 25.07 23.5 74.4 31 5.7 42.2
13:45 1020 30.12 849 25.07 23.2 73.7 28 4.1 39.4
13:50 1020 30.12 849 25.07 24.1 75.4 27 4.1 39.4
13:55 1020 30.12 849 25.07 24.7 76.5 25 3.4 38.2
14:00 1020 30.12 849 25.07 24.8 76.7 24 2.9 37.2
14:05 1020 30.12 849 25.07 24.8 76.6 26 4.5 40.1
14:10 1020 30.12 849 25.07 25.3 77.5 24 3.6 38.4
14:15 1020 30.12 849 25.07 25 77.1 25 3.8 38.8
14:20 1020 30.12 849 25.07 24.6 76.3 27 4.5 40.1
14:25 1020 30.12 849 25.07 24.7 76.5 26 4.2 39.5
14:30 1019 30.09 849 25.07 24.6 76.2 24 3.1 37.6
14:35 1019 30.09 849 25.07 24.9 76.8 26 4.4 39.9
14:40 1019 30.09 848 25.04 24.2 75.6 28 4.6 40.2
14:45 1019 30.09 848 25.04 23.2 73.8 30 4.7 40.5
14:50 1019 30.09 848 25.04 23.2 73.8 30 4.7 40.5
14:55 1019 30.09 848 25.04 23.7 74.7 30 5.3 41.6
15:00 1019 30.09 848 25.04 24.2 75.5 26 3.5 38.4
15:05 1019 30.09 848 25.04 24 75.2 27 3.9 39.1
15:10 1019 30.09 848 25.04 24.1 75.3 25 3 37.3
15:15 1019 30.09 848 25.04 23.9 75.1 26 3.5 38.3
15:20 1019 30.09 848 25.04 24 75.1 25 3.2 37.7
15:25 1019 30.09 848 25.04 24.4 75.9 24 2.7 36.9
15:30 1019 30.09 848 25.04 25.1 77.2 22 2.1 35.8
15:35 1019 30.09 848 25.04 24.3 75.7 24 2.7 36.8
15:40 1019 30.09 848 25.04 24 75.3 24 2.6 36.7
15:45 1019 30.09 848 25.04 24.3 75.7 24 2.5 36.5
15:50 1018 30.06 848 25.04 24.4 75.9 23 2 35.7
15:55 1018 30.06 848 25.04 23.8 74.9 24 2.3 36.2
16:00 1018 30.06 848 25.04 24.7 76.5 22 2 35.6
16:05 1018 30.06 848 25.04 24.5 76.1 23 2.5 36.5
16:10 1018 30.06 848 25.04 24.5 76 23 2.2 35.9
16:15 1018 30.06 848 25.04 24.4 75.9 23 1.9 35.5
16:20 1019 30.09 848 25.04 24 75.2 24 2.2 36
16:25 1019 30.09 848 25.04 23.8 74.8 24 2.4 36.4
16:30 1019 30.09 848 25.04 23.5 74.2 25 2.6 36.6
16:35 1019 30.09 848 25.04 23.2 73.8 27 3.4 38.1
16:40 1019 30.09 848 25.04 22.6 72.6 28 3.5 38.4
16:45 1019 30.09 848 25.04 21.1 69.9 37 6.1 43.1
16:50 1019 30.09 848 25.04 19.6 67.3 41 6.2 43.2
16:55 1019 30.09 848 25.04 19.1 66.5 46 7.4 45.3
17:00 1019 30.09 848 25.04 19.3 66.8 45 7.1 44.8
17:05 1019 30.09 848 25.04 20 68 43 7.2 45
17:10 1019 30.09 848 25.04 20.4 68.7 38 5.7 42.3
17:15 1019 30.09 848 25.04 20.6 69.2 38 6.1 43
17:20 1019 30.09 848 25.04 20.4 68.8 40 6.6 43.8
17:25 1019 30.09 848 25.04 20.3 68.5 43 7.3 45.2
17:30 1019 30.09 848 25.04 20.4 68.7 41 6.8 44.2
17:35 1019 30.09 848 25.04 20.5 68.8 45 8.2 46.7
17:40 1019 30.09 848 25.04 20.3 68.5 45 8.1 46.5
17:45 1018 30.06 848 25.04 20.5 68.8 44 8 46.4
17:50 1018 30.06 848 25.04 20.7 69.2 43 7.8 46
17:55 1018 30.06 848 25.04 21 69.7 40 7.1 44.7
18:00 1018 30.06 848 25.04 20.8 69.4 40 6.7 44.1
18:05 1018 30.06 847 25.01 20.3 68.6 41 6.8 44.3
18:10 1018 30.06 847 25.01 20.2 68.3 40 6.5 43.6
18:15 1018 30.06 847 25.01 20.1 68.2 42 6.8 44.3
18:20 1018 30.06 847 25.01 20.1 68.1 45 8 46.5
18:25 1018 30.06 847 25.01 19.9 67.8 47 8.6 47.4
18:30 1018 30.06 847 25.01 19.9 67.8 47 8.3 47
18:35 1018 30.06 847 25.01 20 67.9 45 7.7 45.8
18:40 1018 30.06 847 25.01 20 68 42 6.8 44.2
18:45 1018 30.06 847 25.01 20.4 68.7 40 6.5 43.7
18:50 1018 30.06 847 25.01 21.1 69.9 39 6.6 43.9
18:55 1018 30.06 847 25.01 21.2 70.1 35 5.4 41.6
19:00 1018 30.06 848 25.04 21.3 70.4 35 5.5 41.8
19:05 1018 30.06 848 25.04 21.6 70.9 31 3.7 38.7
19:10 1018 30.06 848 25.04 21.8 71.3 29 3.3 38
19:15 1018 30.06 848 25.04 21.8 71.3 30 3.5 38.3
19:20 1018 30.06 848 25.04 21.7 71.1 34 5.5 42
19:25 1018 30.06 848 25.04 21.5 70.8 32 4.5 40.1
19:30 1019 30.09 848 25.04 21.4 70.6 36 5.8 42.5
19:35 1019 30.09 848 25.04 21 69.7 35 5.2 41.4
19:40 1019 30.09 848 25.04 20.8 69.4 35 4.9 40.8
19:45 1019 30.09 848 25.04 20.9 69.7 33 4.4 39.9
19:50 1019 30.09 848 25.04 21.2 70.2 33 4.5 40.1
19:55 1018 30.06 848 25.04 21.4 70.5 33 4.5 40.1
20:00 1018 30.06 848 25.04 21.2 70.2 33 4.6 40.3
20:05 1019 30.09 848 25.04 20.9 69.7 34 4.7 40.4
20:10 1019 30.09 848 25.04 20.8 69.5 37 5.9 42.7
20:15 1019 30.09 848 25.04 20.5 69 38 6 42.9
20:20 1019 30.09 848 25.04 20.3 68.5 40 6.4 43.6
20:25 1018 30.06 848 25.04 20.2 68.3 39 6.1 43
20:30 1018 30.06 848 25.04 20 68 37 5.1 41.3
20:35 1019 30.09 848 25.04 19.6 67.3 38 5.2 41.3
20:40 1019 30.09 848 25.04 19.2 66.5 41 5.6 42.1
20:45 1019 30.09 848 25.04 18.7 65.6 40 5 41
20:50 1019 30.09 848 25.04 18.5 65.3 43 5.8 42.4
20:55 1019 30.09 848 25.04 18.3 65 43 5.5 41.9
21:00 1019 30.09 848 25.04 18.3 64.9 44 5.8 42.4
21:05 1019 30.09 848 25.04 18.1 64.6 44 5.6 42.2
21:10 1019 30.09 848 25.04 17.8 64.1 45 5.8 42.4
21:15 1019 30.09 848 25.04 17.6 63.7 45 5.6 42.1
21:20 1019 30.09 848 25.04 17.6 63.7 44 5.3 41.5
21:25 1019 30.09 848 25.04 17.8 64 43 5.2 41.4
21:30 1019 30.09 848 25.04 17.8 64 43 5.1 41.2
21:35 1019 30.09 848 25.04 17.7 63.9 43 5.2 41.3
21:40 1019 30.09 848 25.04 17.7 63.8 44 5.3 41.6
21:45 1019 30.09 848 25.04 17.7 63.9 43 5.2 41.3
21:50 1019 30.09 848 25.04 17.7 63.9 44 5.4 41.7
21:55 1019 30.09 848 25.04 17.3 63.2 47 6.1 43
22:00 1019 30.09 849 25.07 16.8 62.2 48 5.7 42.2
22:05 1019 30.09 849 25.07 16.9 62.4 46 5.3 41.5
22:10 1019 30.09 849 25.07 17.1 62.8 45 5.2 41.3
22:15 1019 30.09 848 25.04 17.2 62.9 44 5.1 41.1
22:20 1019 30.09 848 25.04 17.2 62.9 44 5 41.1
22:25 1019 30.09 848 25.04 17.3 63.2 44 5.2 41.3
22:30 1019 30.09 849 25.07 17.3 63.2 47 6.1 42.9
22:35 1019 30.09 849 25.07 16.7 62.1 51 6.7 44.1
22:40 1019 30.09 849 25.07 16.1 61 55 7.2 44.9
22:45 1020 30.12 849 25.07 15.6 60.1 58 7.4 45.3
22:50 1020 30.12 849 25.07 15.2 59.4 58 7.2 45
22:55 1019 30.09 849 25.07 15 59.1 58 7 44.5
23:00 1019 30.09 849 25.07 15 59.1 58 7 44.6
23:05 1019 30.09 849 25.07 15.1 59.1 58 7 44.6
23:10 1020 30.12 849 25.07 15.2 59.4 57 6.9 44.4
23:15 1020 30.12 849 25.07 15.3 59.6 59 7.5 45.4
23:20 1020 30.12 849 25.07 15.3 59.5 59 7.3 45.2
23:25 1020 30.12 849 25.07 15 59.1 61 7.6 45.6
23:30 1020 30.12 849 25.07 14.9 58.8 60 7.4 45.2
23:35 1020 30.12 849 25.07 14.8 58.7 56 6.3 43.4
23:40 1020 30.12 849 25.07 14.5 58 59 6.7 44
23:45 1020 30.12 849 25.07 13.9 56.9 62 6.7 44.1
23:50 1020 30.12 849 25.07 13.4 56.2 64 6.8 44.2
23:55 1020 30.12 849 25.07 13.2 55.7 66 6.9 44.4
24:00 1020 30.12 849 25.07 12.8 55.1 65 6.4 43.5